< < Back
Terminal Aerodrome Forecast


Current Version              Previous Versions:   1  2  3  4  5  6  7  8  9  

Terminal Aerodrome Forecast

509
FTUS42 KGSP 301139
TAFAVL
TAF
KAVL 301139Z 3012/0112 33005KT P6SM SCT250
     FM301600 15003KT P6SM VCTS BKN040CB
      TEMPO 3018/3022 4SM -TSRA OVC035CB
     FM010200 VRB03KT P6SM SCT030
     FM010800 00000KT 4SM BR SCT003=

Latest METAR

650
SAUS70 KWBC 302100 RRF
MTRAVL
METAR KAVL 302054Z 13006KT 10SM TS FEW024 BKN040 OVC055 23/19 A3005 RMK
AO2 LTG DSNT N AND SE AND S RAB15E49 TSB51 SLP153 P0014 60014
T02330194 55002


USA.gov is the U.S. government's official web portal to all federal, state and local government web resources and services.